createdAt,value
2019-01-27T00:01:18.394Z,-3.00
2019-01-27T00:03:48.237Z,-3.02
2019-01-27T00:06:18.270Z,-3.03
2019-01-27T00:08:48.092Z,-2.97
2019-01-27T00:11:17.894Z,-2.98
2019-01-27T00:13:47.725Z,-2.99
2019-01-27T00:16:18.998Z,-2.95
2019-01-27T00:18:49.649Z,-3.10
2019-01-27T00:21:19.837Z,-3.03
2019-01-27T00:23:50.442Z,-3.00
2019-01-27T00:26:25.159Z,-3.02
2019-01-27T00:29:04.008Z,-3.05
2019-01-27T00:31:41.839Z,-3.05
2019-01-27T00:34:11.531Z,-3.05
2019-01-27T00:37:03.972Z,-3.04
2019-01-27T00:39:45.125Z,-3.01
2019-01-27T00:42:18.328Z,-2.94
2019-01-27T00:44:52.009Z,-2.92
2019-01-27T00:47:21.729Z,-2.92
2019-01-27T00:49:51.609Z,-2.96
2019-01-27T00:52:23.413Z,-2.99
2019-01-27T00:54:56.759Z,-2.97
2019-01-27T00:57:26.638Z,-2.96
2019-01-27T00:59:59.739Z,-2.96
2019-01-27T01:03:00.592Z,-2.95
2019-01-27T01:05:30.605Z,-2.94
2019-01-27T01:08:10.768Z,-2.92
2019-01-27T01:17:17.385Z,-3.23
2019-01-27T01:20:19.225Z,-3.33
2019-01-27T01:22:57.398Z,-3.32
2019-01-27T01:25:55.652Z,-3.28
2019-01-27T01:32:18.586Z,-3.23
2019-01-27T01:35:16.865Z,-3.26
2019-01-27T01:38:11.255Z,-3.42
2019-01-27T01:43:41.956Z,-3.41
2019-01-27T01:46:20.722Z,-3.37
2019-01-27T01:49:00.004Z,-3.33
2019-01-27T01:51:43.791Z,-3.29
2019-01-27T01:54:24.404Z,-3.31
2019-01-27T01:57:11.125Z,-3.31
2019-01-27T01:59:58.185Z,-3.28
2019-01-27T02:02:29.644Z,-3.29
2019-01-27T02:05:03.344Z,-3.30
2019-01-27T02:07:37.684Z,-3.35
2019-01-27T02:10:14.820Z,-3.39
2019-01-27T02:12:48.610Z,-3.46
2019-01-27T02:15:37.556Z,-3.51
2019-01-27T02:18:20.637Z,-3.58
2019-01-27T02:23:57.410Z,-3.54
2019-01-27T02:26:35.635Z,-3.46
2019-01-27T02:29:25.790Z,-3.14
2019-01-27T02:32:01.048Z,-3.11
2019-01-27T02:35:09.538Z,-3.09
2019-01-27T02:37:43.892Z,-3.35
2019-01-27T02:40:16.338Z,-3.40
2019-01-27T02:42:53.498Z,-3.54
2019-01-27T02:45:25.277Z,-3.58
2019-01-27T02:48:01.491Z,-3.62
2019-01-27T02:50:37.978Z,-3.61
2019-01-27T02:53:16.237Z,-3.60
2019-01-27T02:55:56.629Z,-3.60
2019-01-27T02:58:28.989Z,-3.56
2019-01-27T03:01:06.843Z,-3.56
2019-01-27T03:03:48.454Z,-3.54
2019-01-27T03:06:33.114Z,-3.50
2019-01-27T03:09:16.465Z,-3.47
2019-01-27T03:11:53.769Z,-3.45
2019-01-27T03:14:30.097Z,-3.36
2019-01-27T03:20:09.580Z,-3.30
2019-01-27T03:22:44.723Z,-3.25
2019-01-27T03:25:23.598Z,-3.25
2019-01-27T03:28:09.062Z,-3.23
2019-01-27T03:30:41.425Z,-3.23
2019-01-27T03:33:14.561Z,-3.28
2019-01-27T03:35:50.399Z,-3.30
2019-01-27T03:38:24.393Z,-3.35
2019-01-27T03:41:00.422Z,-3.43
2019-01-27T03:43:45.547Z,-3.51
2019-01-27T03:46:27.492Z,-3.53
2019-01-27T03:52:35.340Z,-3.63
2019-01-27T03:55:40.518Z,-3.64
2019-01-27T03:58:26.161Z,-3.65
2019-01-27T04:01:14.819Z,-3.50
2019-01-27T04:04:06.645Z,-3.51
2019-01-27T04:13:05.192Z,-3.80
2019-01-27T04:15:36.755Z,-3.84
2019-01-27T04:18:09.145Z,-3.81
2019-01-27T04:20:39.254Z,-3.81
2019-01-27T04:23:12.262Z,-3.79
2019-01-27T04:25:48.655Z,-3.78
2019-01-27T04:28:21.327Z,-3.77
2019-01-27T04:30:52.374Z,-3.82
2019-01-27T04:33:22.148Z,-3.82
2019-01-27T04:35:52.026Z,-3.83
2019-01-27T04:38:27.945Z,-3.88
2019-01-27T04:41:03.672Z,-3.92
2019-01-27T04:43:39.101Z,-4.05
2019-01-27T04:46:10.617Z,-4.03
2019-01-27T04:48:49.958Z,-4.09
2019-01-27T04:51:33.488Z,-4.11
2019-01-27T04:54:34.448Z,-4.19
2019-01-27T04:57:16.719Z,-4.25
2019-01-27T04:59:53.514Z,-4.30
2019-01-27T05:02:32.312Z,-4.21
2019-01-27T05:05:20.159Z,-4.17
2019-01-27T05:08:07.800Z,-4.15
2019-01-27T05:10:46.985Z,-4.14
2019-01-27T05:16:18.456Z,-4.18
2019-01-27T05:22:02.107Z,-4.09
2019-01-27T05:24:44.489Z,-4.07
2019-01-27T05:27:35.326Z,-4.03
2019-01-27T05:30:11.897Z,-3.97
2019-01-27T05:32:44.061Z,-4.00
2019-01-27T05:35:20.043Z,-3.98
2019-01-27T05:38:05.078Z,-3.97
2019-01-27T05:40:39.247Z,-4.01
2019-01-27T05:43:16.418Z,-4.02
2019-01-27T05:45:49.236Z,-3.99
2019-01-27T05:48:25.339Z,-3.99
2019-01-27T05:51:04.462Z,-3.99
2019-01-27T05:53:36.877Z,-3.99
2019-01-27T05:56:10.695Z,-4.00
2019-01-27T05:58:42.011Z,-4.02
2019-01-27T06:01:15.791Z,-4.04
2019-01-27T06:03:47.340Z,-4.05
2019-01-27T06:06:17.186Z,-4.01
2019-01-27T06:08:47.249Z,-3.48
2019-01-27T06:11:16.983Z,-3.67
2019-01-27T06:13:46.802Z,-1.84
2019-01-27T06:16:16.566Z,-2.55
2019-01-27T06:18:46.372Z,-3.07
2019-01-27T06:21:19.585Z,-3.40
2019-01-27T06:23:49.477Z,-3.59
2019-01-27T06:26:20.160Z,-3.74
2019-01-27T06:28:54.344Z,-3.94
2019-01-27T06:31:33.090Z,-4.05
2019-01-27T06:34:11.025Z,-4.14
2019-01-27T06:36:47.999Z,-3.33
2019-01-27T06:39:25.522Z,-3.82
2019-01-27T06:42:03.070Z,-3.91
2019-01-27T06:44:35.961Z,-3.96
2019-01-27T06:47:05.983Z,-4.06
2019-01-27T06:49:39.545Z,-3.95
2019-01-27T06:52:11.782Z,-3.89
2019-01-27T06:54:48.878Z,-3.79
2019-01-27T06:57:30.157Z,-3.70
2019-01-27T07:00:01.578Z,-3.70
2019-01-27T07:02:38.715Z,-3.71
2019-01-27T07:05:16.936Z,-3.72
2019-01-27T07:08:09.371Z,-3.78
2019-01-27T07:10:46.745Z,-3.65
2019-01-27T07:13:38.403Z,-3.52
2019-01-27T07:16:19.661Z,-4.39
2019-01-27T07:18:57.678Z,-3.30
2019-01-27T07:21:36.990Z,-3.20
2019-01-27T07:24:27.094Z,-3.16
2019-01-27T07:27:15.159Z,-3.04
2019-01-27T07:30:11.988Z,-2.79
2019-01-27T07:33:03.728Z,-2.56
2019-01-27T07:35:45.945Z,-2.40
2019-01-27T07:38:18.646Z,-2.33
2019-01-27T07:40:59.179Z,-2.14
2019-01-27T07:43:52.495Z,-2.00
2019-01-27T07:46:30.768Z,-1.94
2019-01-27T07:49:05.561Z,-1.92
2019-01-27T07:52:06.461Z,-1.87
2019-01-27T07:54:45.055Z,-1.77
2019-01-27T07:57:16.459Z,-1.58
2019-01-27T07:59:48.143Z,-1.44
2019-01-27T08:02:24.368Z,-1.36
2019-01-27T08:05:13.677Z,-1.24
2019-01-27T08:07:45.241Z,-1.07
2019-01-27T08:10:27.228Z,-0.90
2019-01-27T08:13:05.434Z,-0.76
2019-01-27T08:15:39.755Z,-0.71
2019-01-27T08:18:21.995Z,-0.62
2019-01-27T08:21:06.869Z,-0.57
2019-01-27T08:23:55.547Z,-0.38
2019-01-27T08:26:35.794Z,-0.03
2019-01-27T08:29:07.145Z,0.00
2019-01-27T08:31:47.342Z,0.00
2019-01-27T08:34:37.784Z,-0.13
2019-01-27T08:37:12.203Z,-0.12
2019-01-27T08:39:44.447Z,-0.37
2019-01-27T08:42:29.846Z,-0.38
2019-01-27T08:45:05.799Z,-0.40
2019-01-27T08:47:35.625Z,-0.32
2019-01-27T08:50:08.415Z,-0.32
2019-01-27T08:52:38.106Z,-0.38
2019-01-27T08:55:10.740Z,-0.32
2019-01-27T08:57:40.539Z,-0.27
2019-01-27T09:00:16.104Z,-0.35
2019-01-27T09:02:47.397Z,-0.37
2019-01-27T09:05:18.789Z,-0.36
2019-01-27T09:07:52.931Z,-0.43
2019-01-27T09:10:30.368Z,0.04
2019-01-27T09:13:01.760Z,0.81
2019-01-27T09:15:38.751Z,0.81
2019-01-27T09:18:28.793Z,0.98
2019-01-27T09:21:00.083Z,0.98
2019-01-27T09:23:31.477Z,1.26
2019-01-27T09:26:02.983Z,1.38
2019-01-27T09:28:34.473Z,1.32
2019-01-27T09:31:11.736Z,1.26
2019-01-27T09:33:45.797Z,1.26
2019-01-27T09:36:23.169Z,1.25
2019-01-27T09:38:54.448Z,1.04
2019-01-27T09:41:28.585Z,1.01
2019-01-27T09:43:59.918Z,1.06
2019-01-27T09:46:37.456Z,1.17
2019-01-27T09:49:08.786Z,1.23
2019-01-27T09:51:40.177Z,1.30
2019-01-27T09:54:11.556Z,1.31
2019-01-27T09:56:43.024Z,1.12
2019-01-27T09:59:20.379Z,1.03
2019-01-27T10:01:51.663Z,1.33
2019-01-27T10:04:23.070Z,1.57
2019-01-27T10:06:57.484Z,1.84
2019-01-27T10:09:31.756Z,2.67
2019-01-27T10:12:13.562Z,2.99
2019-01-27T10:14:44.914Z,2.99
2019-01-27T10:17:19.051Z,3.10
2019-01-27T10:19:50.406Z,3.34
2019-01-27T10:22:30.590Z,3.30
2019-01-27T10:25:02.056Z,3.47
2019-01-27T10:27:36.175Z,3.24
2019-01-27T10:30:13.163Z,3.27
2019-01-27T10:32:50.351Z,3.23
2019-01-27T10:35:24.624Z,3.12
2019-01-27T10:38:01.769Z,3.18
2019-01-27T10:40:41.990Z,3.17
2019-01-27T10:43:13.402Z,3.04
2019-01-27T10:45:47.432Z,2.96
2019-01-27T10:48:35.110Z,2.90
2019-01-27T10:51:13.335Z,2.83
2019-01-27T10:53:47.859Z,2.83
2019-01-27T10:56:19.249Z,2.76
2019-01-27T10:58:50.638Z,2.83
2019-01-27T11:01:22.046Z,2.82
2019-01-27T11:03:53.411Z,2.85
2019-01-27T11:06:27.748Z,2.77
2019-01-27T11:08:59.097Z,2.78
2019-01-27T11:11:39.707Z,2.68
2019-01-27T11:14:11.066Z,2.71
2019-01-27T11:16:42.373Z,2.76
2019-01-27T11:19:13.985Z,2.70
2019-01-27T11:21:48.153Z,2.78
2019-01-27T11:24:19.623Z,2.89
2019-01-27T11:26:51.010Z,2.80
2019-01-27T11:29:34.545Z,2.80
2019-01-27T11:32:11.813Z,2.68
2019-01-27T11:34:59.407Z,2.65
2019-01-27T11:37:31.259Z,2.65
2019-01-27T11:40:18.899Z,2.64
2019-01-27T11:42:50.285Z,2.66
2019-01-27T11:45:21.685Z,2.62
2019-01-27T11:47:53.217Z,2.67
2019-01-27T11:50:24.560Z,2.64
2019-01-27T11:52:55.357Z,2.62
2019-01-27T11:55:25.210Z,2.64
2019-01-27T11:57:55.011Z,2.67
2019-01-27T12:00:26.361Z,2.64
2019-01-27T12:02:56.201Z,2.67
2019-01-27T12:05:25.999Z,2.70
2019-01-27T12:07:55.868Z,2.74
2019-01-27T12:10:25.658Z,2.74
2019-01-27T12:12:55.466Z,2.75
2019-01-27T12:15:25.335Z,2.77
2019-01-27T12:17:55.119Z,2.79
2019-01-27T12:20:24.943Z,2.30
2019-01-27T12:22:54.837Z,2.33
2019-01-27T12:25:24.718Z,2.31
2019-01-27T12:27:54.529Z,2.34
2019-01-27T12:30:24.380Z,2.33
2019-01-27T12:32:54.211Z,2.30
2019-01-27T12:35:24.049Z,2.35
2019-01-27T12:37:53.883Z,2.22
2019-01-27T12:40:25.088Z,2.40
2019-01-27T12:42:54.814Z,2.51
2019-01-27T12:45:24.618Z,2.59
2019-01-27T12:47:54.405Z,2.36
2019-01-27T12:50:24.611Z,2.22
2019-01-27T12:52:54.646Z,2.22
2019-01-27T12:55:24.484Z,2.29
2019-01-27T12:57:54.326Z,2.36
2019-01-27T13:00:27.370Z,2.55
2019-01-27T13:02:57.326Z,2.66
2019-01-27T13:05:27.392Z,2.80
2019-01-27T13:07:57.191Z,2.96
2019-01-27T13:10:27.109Z,3.07
2019-01-27T13:12:56.936Z,3.09
2019-01-27T13:15:26.740Z,3.15
2019-01-27T13:17:56.577Z,3.17
2019-01-27T13:20:26.517Z,3.18
2019-01-27T13:22:56.335Z,3.21
2019-01-27T13:25:26.164Z,3.27
2019-01-27T13:27:56.045Z,3.32
2019-01-27T13:30:27.422Z,3.33
2019-01-27T13:32:57.220Z,3.31
2019-01-27T13:35:27.117Z,3.32
2019-01-27T13:37:56.966Z,3.28
2019-01-27T13:40:26.839Z,3.28
2019-01-27T13:42:56.717Z,3.31
2019-01-27T13:45:30.973Z,3.32
2019-01-27T13:48:00.815Z,3.30
2019-01-27T13:50:30.639Z,3.33
2019-01-27T13:53:00.465Z,3.34
2019-01-27T13:55:31.978Z,3.30
2019-01-27T13:58:01.944Z,3.29
2019-01-27T14:00:40.205Z,3.26
2019-01-27T14:03:10.047Z,3.27
2019-01-27T14:05:39.824Z,3.28
2019-01-27T14:08:09.768Z,3.23
2019-01-27T14:10:40.085Z,3.21
2019-01-27T14:13:09.992Z,2.93
2019-01-27T14:15:40.441Z,2.88
2019-01-27T14:18:10.389Z,2.90
2019-01-27T14:20:40.690Z,2.91
2019-01-27T14:23:10.519Z,2.93
2019-01-27T14:25:40.491Z,2.88
2019-01-27T14:28:11.887Z,2.72
2019-01-27T14:30:45.901Z,2.66
2019-01-27T14:33:15.740Z,2.82
2019-01-27T14:35:45.579Z,3.60
2019-01-27T14:38:15.394Z,3.58
2019-01-27T14:40:45.228Z,3.34
2019-01-27T14:43:15.049Z,3.20
2019-01-27T14:45:45.070Z,3.03
2019-01-27T14:48:14.962Z,2.92
2019-01-27T14:50:47.322Z,2.83
2019-01-27T14:53:18.236Z,2.76
2019-01-27T14:55:48.117Z,2.67
2019-01-27T14:58:17.944Z,2.83
2019-01-27T15:00:47.786Z,3.01
2019-01-27T15:03:17.635Z,3.10
2019-01-27T15:05:47.433Z,3.50
2019-01-27T15:08:17.261Z,3.45
2019-01-27T15:10:47.067Z,3.28
2019-01-27T15:13:16.891Z,3.70
2019-01-27T15:15:46.881Z,3.49
2019-01-27T15:18:16.720Z,3.16
2019-01-27T15:20:52.438Z,2.94
2019-01-27T15:23:22.326Z,2.74
2019-01-27T15:25:52.266Z,2.59
2019-01-27T15:28:22.097Z,2.46
2019-01-27T15:30:51.896Z,2.35
2019-01-27T15:33:21.750Z,2.25
2019-01-27T15:35:51.892Z,2.16
2019-01-27T15:38:21.668Z,2.14
2019-01-27T15:40:51.594Z,2.14
2019-01-27T15:43:21.412Z,2.09
2019-01-27T15:45:51.237Z,1.92
2019-01-27T15:48:21.145Z,1.79
2019-01-27T15:50:50.973Z,1.73
2019-01-27T15:53:20.791Z,1.60
2019-01-27T15:55:50.695Z,1.49
2019-01-27T15:58:20.991Z,1.30
2019-01-27T16:00:50.833Z,1.30
2019-01-27T16:03:20.715Z,1.23
2019-01-27T16:05:50.582Z,1.14
2019-01-27T16:08:20.390Z,1.03
2019-01-27T16:10:53.901Z,0.95
2019-01-27T16:13:24.080Z,0.79
2019-01-27T16:15:53.923Z,0.75
2019-01-27T16:18:23.950Z,0.65
2019-01-27T16:20:54.088Z,0.58
2019-01-27T16:23:31.734Z,-0.07
2019-01-27T16:26:02.557Z,0.47
2019-01-27T16:28:32.353Z,0.40
2019-01-27T16:31:03.833Z,0.41
2019-01-27T16:33:38.294Z,0.33
2019-01-27T16:36:08.112Z,0.25
2019-01-27T16:38:38.012Z,0.27
2019-01-27T16:41:09.454Z,0.27
2019-01-27T16:43:39.293Z,0.29
2019-01-27T16:46:09.174Z,0.35
2019-01-27T16:48:41.714Z,0.35
2019-01-27T16:51:11.613Z,0.38
2019-01-27T16:53:41.512Z,0.42
2019-01-27T16:56:11.282Z,0.42
2019-01-27T16:58:43.901Z,0.45
2019-01-27T17:01:13.725Z,0.51
2019-01-27T17:03:43.418Z,0.51
2019-01-27T17:06:13.488Z,0.55
2019-01-27T17:08:43.364Z,0.54
2019-01-27T17:11:14.584Z,0.51
2019-01-27T17:13:44.590Z,0.47
2019-01-27T17:16:14.387Z,0.49
2019-01-27T17:18:44.684Z,0.52
2019-01-27T17:21:14.607Z,0.50
2019-01-27T17:23:44.423Z,0.52
2019-01-27T17:26:14.536Z,0.75
2019-01-27T17:28:44.595Z,0.62
2019-01-27T17:31:14.433Z,0.62
2019-01-27T17:33:44.366Z,0.52
2019-01-27T17:36:14.212Z,0.51
2019-01-27T17:38:44.149Z,0.47
2019-01-27T17:41:14.284Z,0.48
2019-01-27T17:43:44.264Z,0.48
2019-01-27T17:46:14.476Z,0.56
2019-01-27T17:48:45.375Z,0.56
2019-01-27T17:51:15.275Z,0.61
2019-01-27T17:53:46.835Z,0.60
2019-01-27T17:56:16.675Z,0.60
2019-01-27T17:58:54.147Z,0.53
2019-01-27T18:01:21.125Z,0.48
2019-01-27T18:03:55.558Z,0.54
2019-01-27T18:06:30.020Z,0.59
2019-01-27T18:09:04.706Z,0.72
2019-01-27T18:11:36.123Z,0.60
2019-01-27T18:14:07.725Z,0.60
2019-01-27T18:16:39.764Z,0.68
2019-01-27T18:19:09.582Z,0.63
2019-01-27T18:21:39.392Z,2.08
2019-01-27T18:24:09.192Z,2.08
2019-01-27T18:26:38.812Z,1.59
2019-01-27T18:29:08.711Z,1.16
2019-01-27T18:31:38.685Z,0.90
2019-01-27T18:34:08.841Z,0.90
2019-01-27T18:36:38.795Z,0.58
2019-01-27T18:39:10.420Z,0.52
2019-01-27T18:41:40.343Z,0.52
2019-01-27T18:44:10.752Z,0.53
2019-01-27T18:46:40.560Z,0.55
2019-01-27T18:49:12.433Z,0.55
2019-01-27T18:51:44.362Z,0.58
2019-01-27T18:54:24.700Z,0.58
2019-01-27T18:56:56.083Z,0.77
2019-01-27T18:59:30.239Z,0.65
2019-01-27T19:02:01.719Z,0.65
2019-01-27T19:04:38.702Z,0.61
2019-01-27T19:07:19.118Z,0.60
2019-01-27T19:09:53.634Z,0.59
2019-01-27T19:12:34.793Z,0.59
2019-01-27T19:15:13.215Z,0.61
2019-01-27T19:18:05.185Z,0.61
2019-01-27T19:20:53.234Z,0.62
2019-01-27T19:23:39.475Z,0.65
2019-01-27T19:26:10.856Z,0.83
2019-01-27T19:28:57.415Z,0.86
2019-01-27T19:31:29.194Z,0.80
2019-01-27T19:34:00.577Z,0.80
2019-01-27T19:36:31.966Z,0.62
2019-01-27T19:39:21.645Z,0.41
2019-01-27T19:42:04.994Z,0.41
2019-01-27T19:44:39.395Z,0.32
2019-01-27T19:47:16.714Z,0.42
2019-01-27T19:49:53.642Z,0.42
2019-01-27T19:52:31.038Z,0.44
2019-01-27T19:55:15.469Z,0.59
2019-01-27T19:57:46.951Z,0.59
2019-01-27T20:00:21.181Z,0.49
2019-01-27T20:02:52.542Z,0.47
2019-01-27T20:05:24.101Z,0.48
2019-01-27T20:07:58.101Z,0.48
2019-01-27T20:10:35.574Z,0.46
2019-01-27T20:13:08.834Z,1.08
2019-01-27T20:15:41.745Z,2.65
2019-01-27T20:18:13.260Z,2.65
2019-01-27T20:21:00.105Z,2.68
2019-01-27T20:23:36.406Z,2.53
2019-01-27T20:26:11.331Z,2.12
2019-01-27T20:28:52.399Z,1.86
2019-01-27T20:31:23.771Z,1.63
2019-01-27T20:33:58.589Z,1.32
2019-01-27T20:36:36.179Z,1.32
2019-01-27T20:39:09.967Z,1.16
2019-01-27T20:41:50.417Z,1.13
2019-01-27T20:44:33.930Z,0.97
2019-01-27T20:47:15.191Z,0.85
2019-01-27T20:49:49.636Z,0.80
2019-01-27T20:52:24.823Z,0.76
2019-01-27T20:55:02.229Z,0.77
2019-01-27T20:57:48.369Z,0.69
2019-01-27T21:00:35.356Z,0.62
2019-01-27T21:03:13.707Z,0.58
2019-01-27T21:05:45.094Z,0.52
2019-01-27T21:08:16.963Z,0.54
2019-01-27T21:10:48.394Z,0.55
2019-01-27T21:13:22.811Z,0.50
2019-01-27T21:16:06.184Z,0.46
2019-01-27T21:18:37.691Z,0.34
2019-01-27T21:21:07.540Z,0.34
2019-01-27T21:23:37.400Z,0.26
2019-01-27T21:26:07.257Z,0.26
2019-01-27T21:28:37.056Z,0.25
2019-01-27T21:31:07.837Z,0.23
2019-01-27T21:33:37.834Z,0.21
2019-01-27T21:36:07.636Z,0.09
2019-01-27T21:38:37.475Z,0.09
2019-01-27T21:41:07.585Z,0.04
2019-01-27T21:43:38.309Z,0.04
2019-01-27T21:46:08.162Z,0.13
2019-01-27T21:48:38.004Z,0.13
2019-01-27T21:51:07.943Z,0.30
2019-01-27T21:53:37.757Z,0.29
2019-01-27T21:56:07.568Z,0.35
2019-01-27T21:58:37.401Z,0.34
2019-01-27T22:01:07.167Z,0.31
2019-01-27T22:03:36.958Z,0.31
2019-01-27T22:06:06.822Z,0.33
2019-01-27T22:08:37.526Z,0.34
2019-01-27T22:11:07.388Z,0.37
2019-01-27T22:13:37.159Z,0.43
2019-01-27T22:16:06.995Z,0.43
2019-01-27T22:18:36.731Z,0.66
2019-01-27T22:21:06.551Z,0.59
2019-01-27T22:23:36.372Z,0.56
2019-01-27T22:26:06.254Z,0.56
2019-01-27T22:28:37.119Z,0.68
2019-01-27T22:31:06.932Z,0.77
2019-01-27T22:33:36.780Z,0.91
2019-01-27T22:36:07.299Z,0.91
2019-01-27T22:38:37.927Z,0.92
2019-01-27T22:41:07.799Z,0.88
2019-01-27T22:43:37.793Z,0.88
2019-01-27T22:46:07.563Z,0.78
2019-01-27T22:48:37.114Z,0.92
2019-01-27T22:51:07.210Z,0.96
2019-01-27T22:53:37.037Z,0.96
2019-01-27T22:56:06.767Z,0.86
2019-01-27T22:58:36.568Z,0.79
2019-01-27T23:01:07.872Z,0.77
2019-01-27T23:03:37.636Z,0.78
2019-01-27T23:06:07.468Z,0.78
2019-01-27T23:08:37.365Z,0.89
2019-01-27T23:11:07.197Z,0.87
2019-01-27T23:13:36.996Z,0.86
2019-01-27T23:16:06.984Z,0.83
2019-01-27T23:18:36.798Z,0.69
2019-01-27T23:21:06.591Z,0.70
2019-01-27T23:23:36.401Z,0.70
2019-01-27T23:26:06.382Z,0.67
2019-01-27T23:28:36.181Z,0.67
2019-01-27T23:31:05.981Z,0.86
2019-01-27T23:33:35.746Z,0.91
2019-01-27T23:36:05.616Z,0.91
2019-01-27T23:38:35.303Z,0.89
2019-01-27T23:41:05.160Z,1.01
2019-01-27T23:43:34.972Z,0.91
2019-01-27T23:46:05.072Z,0.83
2019-01-27T23:48:34.877Z,0.83
2019-01-27T23:51:04.689Z,0.86
2019-01-27T23:53:34.495Z,1.01
2019-01-27T23:56:04.336Z,0.92
2019-01-27T23:58:34.104Z,1.02
